sensor_id;sensor_type;location;lat;lon;timestamp;P1;durP1;ratioP1;P2;durP2;ratioP2
1887;SDS011;944;51.574;6.980;2023-03-23T00:01:49;7.43;;;3.87;;
1887;SDS011;944;51.574;6.980;2023-03-23T00:04:35;12.20;;;4.47;;
1887;SDS011;944;51.574;6.980;2023-03-23T00:10:17;12.00;;;4.50;;
1887;SDS011;944;51.574;6.980;2023-03-23T00:13:23;12.70;;;5.17;;
1887;SDS011;944;51.574;6.980;2023-03-23T00:16:19;6.93;;;3.67;;
1887;SDS011;944;51.574;6.980;2023-03-23T00:19:19;10.20;;;3.60;;
1887;SDS011;944;51.574;6.980;2023-03-23T00:22:27;7.30;;;3.40;;
1887;SDS011;944;51.574;6.980;2023-03-23T00:28:45;11.07;;;3.30;;
1887;SDS011;944;51.574;6.980;2023-03-23T00:31:56;6.57;;;3.53;;
1887;SDS011;944;51.574;6.980;2023-03-23T00:35:39;8.07;;;3.50;;
1887;SDS011;944;51.574;6.980;2023-03-23T00:38:48;5.37;;;3.00;;
1887;SDS011;944;51.574;6.980;2023-03-23T00:45:01;3.70;;;3.13;;
1887;SDS011;944;51.574;6.980;2023-03-23T00:48:06;4.87;;;3.57;;
1887;SDS011;944;51.574;6.980;2023-03-23T00:50:49;5.57;;;3.27;;
1887;SDS011;944;51.574;6.980;2023-03-23T01:01:02;6.60;;;3.50;;
1887;SDS011;944;51.574;6.980;2023-03-23T01:04:15;4.73;;;3.10;;
1887;SDS011;944;51.574;6.980;2023-03-23T01:07:17;4.47;;;3.17;;
1887;SDS011;944;51.574;6.980;2023-03-23T01:29:23;4.53;;;2.83;;
1887;SDS011;944;51.574;6.980;2023-03-23T01:32:46;5.00;;;3.13;;
1887;SDS011;944;51.574;6.980;2023-03-23T01:39:10;6.43;;;3.13;;
1887;SDS011;944;51.574;6.980;2023-03-23T01:47:38;4.40;;;3.00;;
1887;SDS011;944;51.574;6.980;2023-03-23T01:50:25;3.60;;;3.03;;
1887;SDS011;944;51.574;6.980;2023-03-23T01:53:45;4.13;;;3.20;;
1887;SDS011;944;51.574;6.980;2023-03-23T01:57:03;4.30;;;3.20;;
1887;SDS011;944;51.574;6.980;2023-03-23T02:03:54;5.43;;;2.70;;
1887;SDS011;944;51.574;6.980;2023-03-23T02:10:25;3.90;;;2.77;;
1887;SDS011;944;51.574;6.980;2023-03-23T02:13:20;4.17;;;2.80;;
1887;SDS011;944;51.574;6.980;2023-03-23T02:30:39;4.43;;;3.00;;
1887;SDS011;944;51.574;6.980;2023-03-23T02:34:31;7.03;;;3.07;;
1887;SDS011;944;51.574;6.980;2023-03-23T02:37:42;3.30;;;2.57;;
1887;SDS011;944;51.574;6.980;2023-03-23T02:44:21;3.27;;;2.67;;
1887;SDS011;944;51.574;6.980;2023-03-23T02:47:35;3.10;;;2.80;;
1887;SDS011;944;51.574;6.980;2023-03-23T02:54:02;5.60;;;2.67;;
1887;SDS011;944;51.574;6.980;2023-03-23T02:57:20;12.33;;;3.13;;
1887;SDS011;944;51.574;6.980;2023-03-23T03:04:13;3.93;;;2.90;;
1887;SDS011;944;51.574;6.980;2023-03-23T03:07:30;7.80;;;3.03;;
1887;SDS011;944;51.574;6.980;2023-03-23T03:10:18;4.50;;;3.40;;
1887;SDS011;944;51.574;6.980;2023-03-23T03:13:03;15.40;;;3.17;;
1887;SDS011;944;51.574;6.980;2023-03-23T03:16:23;9.30;;;3.20;;
1887;SDS011;944;51.574;6.980;2023-03-23T03:19:44;3.20;;;2.70;;
1887;SDS011;944;51.574;6.980;2023-03-23T03:26:18;8.47;;;3.13;;
1887;SDS011;944;51.574;6.980;2023-03-23T03:29:51;6.07;;;3.27;;
1887;SDS011;944;51.574;6.980;2023-03-23T03:36:02;3.10;;;2.60;;
1887;SDS011;944;51.574;6.980;2023-03-23T03:50:33;3.43;;;2.77;;
1887;SDS011;944;51.574;6.980;2023-03-23T03:53:45;4.13;;;2.83;;
1887;SDS011;944;51.574;6.980;2023-03-23T03:56:23;3.70;;;2.80;;
1887;SDS011;944;51.574;6.980;2023-03-23T03:58:56;5.03;;;3.07;;
1887;SDS011;944;51.574;6.980;2023-03-23T04:05:14;5.53;;;2.97;;
1887;SDS011;944;51.574;6.980;2023-03-23T04:08:27;2.77;;;2.50;;
1887;SDS011;944;51.574;6.980;2023-03-23T04:11:11;5.10;;;2.97;;
1887;SDS011;944;51.574;6.980;2023-03-23T04:13:48;2.60;;;2.43;;
1887;SDS011;944;51.574;6.980;2023-03-23T04:16:35;4.53;;;2.93;;
1887;SDS011;944;51.574;6.980;2023-03-23T04:19:36;3.40;;;2.53;;
1887;SDS011;944;51.574;6.980;2023-03-23T04:23:01;4.17;;;2.50;;
1887;SDS011;944;51.574;6.980;2023-03-23T04:25:50;2.60;;;2.40;;
1887;SDS011;944;51.574;6.980;2023-03-23T04:28:45;4.07;;;2.80;;
1887;SDS011;944;51.574;6.980;2023-03-23T04:31:27;2.63;;;2.40;;
1887;SDS011;944;51.574;6.980;2023-03-23T04:34:20;3.23;;;2.70;;
1887;SDS011;944;51.574;6.980;2023-03-23T04:37:07;4.37;;;2.80;;
1887;SDS011;944;51.574;6.980;2023-03-23T04:39:45;4.77;;;2.87;;
1887;SDS011;944;51.574;6.980;2023-03-23T04:42:32;2.87;;;2.60;;
1887;SDS011;944;51.574;6.980;2023-03-23T04:44:59;2.70;;;2.50;;
1887;SDS011;944;51.574;6.980;2023-03-23T04:47:27;4.07;;;2.73;;
1887;SDS011;944;51.574;6.980;2023-03-23T04:50:06;4.73;;;2.50;;
1887;SDS011;944;51.574;6.980;2023-03-23T04:52:55;3.30;;;2.40;;
1887;SDS011;944;51.574;6.980;2023-03-23T04:55:29;3.20;;;2.87;;
1887;SDS011;944;51.574;6.980;2023-03-23T04:58:07;3.90;;;3.10;;
1887;SDS011;944;51.574;6.980;2023-03-23T05:00:38;4.10;;;2.80;;
1887;SDS011;944;51.574;6.980;2023-03-23T05:03:16;2.83;;;2.53;;
1887;SDS011;944;51.574;6.980;2023-03-23T05:05:47;6.07;;;2.67;;
1887;SDS011;944;51.574;6.980;2023-03-23T05:08:20;5.03;;;2.53;;
1887;SDS011;944;51.574;6.980;2023-03-23T05:13:41;4.20;;;2.70;;
1887;SDS011;944;51.574;6.980;2023-03-23T05:16:10;3.07;;;2.77;;
1887;SDS011;944;51.574;6.980;2023-03-23T05:18:52;10.43;;;3.00;;
1887;SDS011;944;51.574;6.980;2023-03-23T05:21:22;5.70;;;2.83;;
1887;SDS011;944;51.574;6.980;2023-03-23T05:24:02;4.43;;;2.40;;
1887;SDS011;944;51.574;6.980;2023-03-23T05:26:38;3.03;;;2.73;;
1887;SDS011;944;51.574;6.980;2023-03-23T05:44:25;5.00;;;3.33;;
1887;SDS011;944;51.574;6.980;2023-03-23T05:47:05;4.53;;;3.10;;
1887;SDS011;944;51.574;6.980;2023-03-23T05:49:36;4.30;;;2.77;;
1887;SDS011;944;51.574;6.980;2023-03-23T05:52:29;6.40;;;3.07;;
1887;SDS011;944;51.574;6.980;2023-03-23T05:55:32;5.03;;;3.07;;
1887;SDS011;944;51.574;6.980;2023-03-23T05:58:31;5.97;;;3.30;;
1887;SDS011;944;51.574;6.980;2023-03-23T06:01:10;4.77;;;3.33;;
1887;SDS011;944;51.574;6.980;2023-03-23T06:04:13;4.60;;;3.37;;
1887;SDS011;944;51.574;6.980;2023-03-23T06:07:11;5.63;;;3.20;;
1887;SDS011;944;51.574;6.980;2023-03-23T06:10:04;7.13;;;2.97;;
1887;SDS011;944;51.574;6.980;2023-03-23T06:13:39;4.23;;;3.03;;
1887;SDS011;944;51.574;6.980;2023-03-23T06:16:35;3.37;;;2.97;;
1887;SDS011;944;51.574;6.980;2023-03-23T06:20:48;7.10;;;3.47;;
1887;SDS011;944;51.574;6.980;2023-03-23T06:45:18;4.43;;;3.20;;
1887;SDS011;944;51.574;6.980;2023-03-23T07:07:47;4.63;;;3.10;;
1887;SDS011;944;51.574;6.980;2023-03-23T08:09:56;5.60;;;3.20;;
1887;SDS011;944;51.574;6.980;2023-03-23T10:12:31;10.13;;;2.30;;
1887;SDS011;944;51.574;6.980;2023-03-23T10:15:33;10.07;;;2.47;;
1887;SDS011;944;51.574;6.980;2023-03-23T15:37:19;8.40;;;3.30;;
1887;SDS011;944;51.574;6.980;2023-03-23T15:39:53;5.73;;;2.70;;
1887;SDS011;944;51.574;6.980;2023-03-23T15:42:33;7.23;;;2.90;;
1887;SDS011;944;51.574;6.980;2023-03-23T15:45:21;4.80;;;2.97;;
1887;SDS011;944;51.574;6.980;2023-03-23T15:47:53;5.00;;;2.47;;
1887;SDS011;944;51.574;6.980;2023-03-23T15:50:38;9.53;;;2.80;;
1887;SDS011;944;51.574;6.980;2023-03-23T15:53:22;6.40;;;2.87;;
1887;SDS011;944;51.574;6.980;2023-03-23T15:55:54;8.57;;;2.77;;
1887;SDS011;944;51.574;6.980;2023-03-23T15:58:21;6.80;;;3.07;;
1887;SDS011;944;51.574;6.980;2023-03-23T16:00:51;7.50;;;3.13;;
1887;SDS011;944;51.574;6.980;2023-03-23T16:03:22;5.17;;;2.63;;
1887;SDS011;944;51.574;6.980;2023-03-23T16:05:56;8.70;;;2.67;;
1887;SDS011;944;51.574;6.980;2023-03-23T16:08:28;10.37;;;2.57;;
1887;SDS011;944;51.574;6.980;2023-03-23T16:10:56;11.30;;;2.80;;
1887;SDS011;944;51.574;6.980;2023-03-23T16:13:24;4.97;;;2.37;;
1887;SDS011;944;51.574;6.980;2023-03-23T16:15:58;9.23;;;2.70;;
1887;SDS011;944;51.574;6.980;2023-03-23T16:18:50;7.27;;;2.73;;
1887;SDS011;944;51.574;6.980;2023-03-23T16:21:17;9.33;;;2.73;;
1887;SDS011;944;51.574;6.980;2023-03-23T16:23:45;10.37;;;3.00;;
1887;SDS011;944;51.574;6.980;2023-03-23T16:26:13;10.63;;;2.80;;
1887;SDS011;944;51.574;6.980;2023-03-23T16:28:41;9.97;;;3.20;;
1887;SDS011;944;51.574;6.980;2023-03-23T16:34:49;6.00;;;2.27;;
1887;SDS011;944;51.574;6.980;2023-03-23T16:37:18;8.10;;;2.67;;
1887;SDS011;944;51.574;6.980;2023-03-23T16:50:28;5.80;;;3.10;;
1887;SDS011;944;51.574;6.980;2023-03-23T16:52:56;5.90;;;2.70;;
1887;SDS011;944;51.574;6.980;2023-03-23T16:55:34;7.20;;;2.93;;
1887;SDS011;944;51.574;6.980;2023-03-23T16:58:02;7.27;;;2.80;;
1887;SDS011;944;51.574;6.980;2023-03-23T17:00:33;10.13;;;2.60;;
1887;SDS011;944;51.574;6.980;2023-03-23T17:03:20;9.43;;;3.07;;
1887;SDS011;944;51.574;6.980;2023-03-23T18:23:01;12.73;;;4.20;;
1887;SDS011;944;51.574;6.980;2023-03-23T18:25:35;9.43;;;3.40;;
1887;SDS011;944;51.574;6.980;2023-03-23T18:28:03;5.57;;;3.17;;
1887;SDS011;944;51.574;6.980;2023-03-23T18:30:30;11.30;;;3.73;;
1887;SDS011;944;51.574;6.980;2023-03-23T18:32:58;13.90;;;3.60;;
1887;SDS011;944;51.574;6.980;2023-03-23T18:35:26;5.70;;;3.53;;
